sensor_id;sensor_type;location;lat;lon;timestamp;P1;durP1;ratioP1;P2;durP2;ratioP2
74457;SDS011;62896;51.032;3.712;2023-12-20T00:01:44;7.9;;;1.1;;
74457;SDS011;62896;51.032;3.712;2023-12-20T00:05:05;7.9;;;1.1;;
74457;SDS011;62896;51.032;3.712;2023-12-20T00:08:24;8.9;;;1.3;;
74457;SDS011;62896;51.032;3.712;2023-12-20T00:11:44;8.9;;;1.3;;
74457;SDS011;62896;51.032;3.712;2023-12-20T00:15:04;8.9;;;1.3;;
74457;SDS011;62896;51.032;3.712;2023-12-20T00:18:24;8.9;;;1.3;;
74457;SDS011;62896;51.032;3.712;2023-12-20T00:21:44;8.9;;;1.3;;
74457;SDS011;62896;51.032;3.712;2023-12-20T00:25:04;8.9;;;1.3;;
74457;SDS011;62896;51.032;3.712;2023-12-20T00:28:25;8.9;;;1.3;;
74457;SDS011;62896;51.032;3.712;2023-12-20T00:31:44;7.7;;;1.7;;
74457;SDS011;62896;51.032;3.712;2023-12-20T00:35:04;7.7;;;1.7;;
74457;SDS011;62896;51.032;3.712;2023-12-20T00:38:24;7.7;;;1.7;;
74457;SDS011;62896;51.032;3.712;2023-12-20T00:41:44;7.7;;;1.7;;
74457;SDS011;62896;51.032;3.712;2023-12-20T00:45:04;7.7;;;1.7;;
74457;SDS011;62896;51.032;3.712;2023-12-20T00:48:24;7.7;;;1.7;;
74457;SDS011;62896;51.032;3.712;2023-12-20T00:51:44;7.7;;;1.7;;
74457;SDS011;62896;51.032;3.712;2023-12-20T00:55:04;7.7;;;1.7;;
74457;SDS011;62896;51.032;3.712;2023-12-20T00:58:24;7.6;;;1.7;;
74457;SDS011;62896;51.032;3.712;2023-12-20T01:01:44;7.6;;;1.7;;
74457;SDS011;62896;51.032;3.712;2023-12-20T01:05:04;7.6;;;1.7;;
74457;SDS011;62896;51.032;3.712;2023-12-20T01:08:24;7.6;;;1.7;;
74457;SDS011;62896;51.032;3.712;2023-12-20T01:11:44;7.6;;;1.7;;
74457;SDS011;62896;51.032;3.712;2023-12-20T01:15:04;7.6;;;1.7;;
74457;SDS011;62896;51.032;3.712;2023-12-20T01:18:24;7.6;;;1.7;;
74457;SDS011;62896;51.032;3.712;2023-12-20T01:21:44;8.8;;;1.9;;
74457;SDS011;62896;51.032;3.712;2023-12-20T01:25:04;8.8;;;1.9;;
74457;SDS011;62896;51.032;3.712;2023-12-20T01:28:24;8.8;;;1.9;;
74457;SDS011;62896;51.032;3.712;2023-12-20T01:31:44;8.8;;;1.9;;
74457;SDS011;62896;51.032;3.712;2023-12-20T01:35:04;8.8;;;1.9;;
74457;SDS011;62896;51.032;3.712;2023-12-20T01:38:24;8.8;;;1.9;;
74457;SDS011;62896;51.032;3.712;2023-12-20T01:41:44;8.8;;;1.9;;
74457;SDS011;62896;51.032;3.712;2023-12-20T01:45:05;8.8;;;1.9;;
74457;SDS011;62896;51.032;3.712;2023-12-20T01:48:24;8.8;;;1.8;;
74457;SDS011;62896;51.032;3.712;2023-12-20T01:51:44;8.8;;;1.8;;
74457;SDS011;62896;51.032;3.712;2023-12-20T01:55:04;8.8;;;1.8;;
74457;SDS011;62896;51.032;3.712;2023-12-20T01:58:24;8.8;;;1.8;;
74457;SDS011;62896;51.032;3.712;2023-12-20T02:01:44;8.8;;;1.8;;
74457;SDS011;62896;51.032;3.712;2023-12-20T02:05:04;8.8;;;1.8;;
74457;SDS011;62896;51.032;3.712;2023-12-20T02:08:24;8.8;;;1.8;;
74457;SDS011;62896;51.032;3.712;2023-12-20T02:11:44;10.5;;;1.7;;
74457;SDS011;62896;51.032;3.712;2023-12-20T02:15:04;10.5;;;1.7;;
74457;SDS011;62896;51.032;3.712;2023-12-20T02:18:24;10.5;;;1.7;;
74457;SDS011;62896;51.032;3.712;2023-12-20T02:21:44;10.5;;;1.7;;
74457;SDS011;62896;51.032;3.712;2023-12-20T02:25:04;10.5;;;1.7;;
74457;SDS011;62896;51.032;3.712;2023-12-20T02:28:24;10.5;;;1.7;;
74457;SDS011;62896;51.032;3.712;2023-12-20T02:31:44;10.5;;;1.7;;
74457;SDS011;62896;51.032;3.712;2023-12-20T02:35:04;10.5;;;1.7;;
74457;SDS011;62896;51.032;3.712;2023-12-20T02:38:24;11;;;2.1;;
74457;SDS011;62896;51.032;3.712;2023-12-20T02:41:44;11;;;2.1;;
74457;SDS011;62896;51.032;3.712;2023-12-20T02:45:04;11;;;2.1;;
74457;SDS011;62896;51.032;3.712;2023-12-20T02:48:24;11;;;2.1;;
74457;SDS011;62896;51.032;3.712;2023-12-20T02:51:44;11;;;2.1;;
74457;SDS011;62896;51.032;3.712;2023-12-20T02:55:04;11;;;2.1;;
74457;SDS011;62896;51.032;3.712;2023-12-20T02:58:24;11;;;2.1;;
74457;SDS011;62896;51.032;3.712;2023-12-20T03:01:45;9;;;1.7;;
74457;SDS011;62896;51.032;3.712;2023-12-20T03:05:04;9;;;1.7;;
74457;SDS011;62896;51.032;3.712;2023-12-20T03:08:24;9;;;1.7;;
74457;SDS011;62896;51.032;3.712;2023-12-20T03:11:45;9;;;1.7;;
74457;SDS011;62896;51.032;3.712;2023-12-20T03:15:04;9;;;1.7;;
74457;SDS011;62896;51.032;3.712;2023-12-20T03:18:24;9;;;1.7;;
74457;SDS011;62896;51.032;3.712;2023-12-20T03:21:44;9;;;1.7;;
74457;SDS011;62896;51.032;3.712;2023-12-20T03:25:04;9;;;1.7;;
74457;SDS011;62896;51.032;3.712;2023-12-20T03:28:24;8.2;;;1.8;;
74457;SDS011;62896;51.032;3.712;2023-12-20T03:31:44;8.2;;;1.8;;
74457;SDS011;62896;51.032;3.712;2023-12-20T03:35:04;8.2;;;1.8;;
74457;SDS011;62896;51.032;3.712;2023-12-20T03:38:24;8.2;;;1.8;;
74457;SDS011;62896;51.032;3.712;2023-12-20T03:41:44;8.2;;;1.8;;
74457;SDS011;62896;51.032;3.712;2023-12-20T03:45:05;8.2;;;1.8;;
74457;SDS011;62896;51.032;3.712;2023-12-20T03:48:24;8.2;;;1.8;;
74457;SDS011;62896;51.032;3.712;2023-12-20T03:51:44;15.2;;;2.3;;
74457;SDS011;62896;51.032;3.712;2023-12-20T03:55:04;15.2;;;2.3;;
74457;SDS011;62896;51.032;3.712;2023-12-20T03:58:24;15.2;;;2.3;;
74457;SDS011;62896;51.032;3.712;2023-12-20T04:01:44;15.2;;;2.3;;
74457;SDS011;62896;51.032;3.712;2023-12-20T04:05:04;15.2;;;2.3;;
74457;SDS011;62896;51.032;3.712;2023-12-20T04:08:24;15.2;;;2.3;;
74457;SDS011;62896;51.032;3.712;2023-12-20T04:11:44;15.2;;;2.3;;
74457;SDS011;62896;51.032;3.712;2023-12-20T04:15:04;15.2;;;2.3;;
74457;SDS011;62896;51.032;3.712;2023-12-20T04:18:24;10.6;;;1.7;;
74457;SDS011;62896;51.032;3.712;2023-12-20T04:21:44;10.6;;;1.7;;
74457;SDS011;62896;51.032;3.712;2023-12-20T04:25:04;10.6;;;1.7;;
74457;SDS011;62896;51.032;3.712;2023-12-20T04:28:24;10.6;;;1.7;;
74457;SDS011;62896;51.032;3.712;2023-12-20T04:31:44;10.6;;;1.7;;
74457;SDS011;62896;51.032;3.712;2023-12-20T04:35:05;10.6;;;1.7;;
74457;SDS011;62896;51.032;3.712;2023-12-20T04:38:24;10.6;;;1.7;;
74457;SDS011;62896;51.032;3.712;2023-12-20T04:41:44;16;;;2.2;;
74457;SDS011;62896;51.032;3.712;2023-12-20T04:45:04;16;;;2.2;;
74457;SDS011;62896;51.032;3.712;2023-12-20T04:48:24;16;;;2.2;;
74457;SDS011;62896;51.032;3.712;2023-12-20T04:51:44;16;;;2.2;;
74457;SDS011;62896;51.032;3.712;2023-12-20T04:55:04;16;;;2.2;;
74457;SDS011;62896;51.032;3.712;2023-12-20T04:58:24;16;;;2.2;;
74457;SDS011;62896;51.032;3.712;2023-12-20T05:01:44;16;;;2.2;;
74457;SDS011;62896;51.032;3.712;2023-12-20T05:05:04;16;;;2.2;;
74457;SDS011;62896;51.032;3.712;2023-12-20T05:08:24;13.8;;;2.2;;
74457;SDS011;62896;51.032;3.712;2023-12-20T05:11:44;13.8;;;2.2;;
74457;SDS011;62896;51.032;3.712;2023-12-20T05:15:05;13.8;;;2.2;;
74457;SDS011;62896;51.032;3.712;2023-12-20T05:18:24;13.8;;;2.2;;
74457;SDS011;62896;51.032;3.712;2023-12-20T05:21:44;13.8;;;2.2;;
74457;SDS011;62896;51.032;3.712;2023-12-20T05:25:05;13.8;;;2.2;;
74457;SDS011;62896;51.032;3.712;2023-12-20T05:28:24;13.8;;;2.2;;
74457;SDS011;62896;51.032;3.712;2023-12-20T05:31:44;11.2;;;1.8;;
74457;SDS011;62896;51.032;3.712;2023-12-20T05:35:04;11.2;;;1.8;;
74457;SDS011;62896;51.032;3.712;2023-12-20T05:38:24;11.2;;;1.8;;
74457;SDS011;62896;51.032;3.712;2023-12-20T05:41:44;11.2;;;1.8;;
74457;SDS011;62896;51.032;3.712;2023-12-20T05:45:05;11.2;;;1.8;;
74457;SDS011;62896;51.032;3.712;2023-12-20T05:48:24;11.2;;;1.8;;
74457;SDS011;62896;51.032;3.712;2023-12-20T05:51:44;11.2;;;1.8;;
74457;SDS011;62896;51.032;3.712;2023-12-20T05:55:04;11.2;;;1.8;;
74457;SDS011;62896;51.032;3.712;2023-12-20T05:58:24;10.9;;;2;;
74457;SDS011;62896;51.032;3.712;2023-12-20T06:01:44;10.9;;;2;;
74457;SDS011;62896;51.032;3.712;2023-12-20T06:05:05;10.9;;;2;;
74457;SDS011;62896;51.032;3.712;2023-12-20T06:08:24;10.9;;;2;;
74457;SDS011;62896;51.032;3.712;2023-12-20T06:11:44;10.9;;;2;;
74457;SDS011;62896;51.032;3.712;2023-12-20T06:15:05;10.9;;;2;;
74457;SDS011;62896;51.032;3.712;2023-12-20T06:18:24;10.9;;;2;;
74457;SDS011;62896;51.032;3.712;2023-12-20T06:21:44;11.3;;;2.1;;
74457;SDS011;62896;51.032;3.712;2023-12-20T06:25:04;11.3;;;2.1;;
74457;SDS011;62896;51.032;3.712;2023-12-20T06:28:24;11.3;;;2.1;;
74457;SDS011;62896;51.032;3.712;2023-12-20T06:31:44;11.3;;;2.1;;
74457;SDS011;62896;51.032;3.712;2023-12-20T06:35:05;11.3;;;2.1;;
74457;SDS011;62896;51.032;3.712;2023-12-20T06:38:24;11.3;;;2.1;;
74457;SDS011;62896;51.032;3.712;2023-12-20T06:41:44;11.3;;;2.1;;
74457;SDS011;62896;51.032;3.712;2023-12-20T06:45:04;11.3;;;2.1;;
74457;SDS011;62896;51.032;3.712;2023-12-20T06:48:24;16.1;;;2.1;;
74457;SDS011;62896;51.032;3.712;2023-12-20T06:51:44;16.1;;;2.1;;
74457;SDS011;62896;51.032;3.712;2023-12-20T06:55:05;16.1;;;2.1;;
74457;SDS011;62896;51.032;3.712;2023-12-20T06:58:24;16.1;;;2.1;;
74457;SDS011;62896;51.032;3.712;2023-12-20T07:01:47;16.1;;;2.1;;
74457;SDS011;62896;51.032;3.712;2023-12-20T07:05:05;16.1;;;2.1;;
74457;SDS011;62896;51.032;3.712;2023-12-20T07:08:24;16.1;;;2.1;;
74457;SDS011;62896;51.032;3.712;2023-12-20T07:11:44;13.2;;;2;;
74457;SDS011;62896;51.032;3.712;2023-12-20T07:15:05;13.2;;;2;;
74457;SDS011;62896;51.032;3.712;2023-12-20T07:18:24;13.2;;;2;;
74457;SDS011;62896;51.032;3.712;2023-12-20T07:21:44;13.2;;;2;;
74457;SDS011;62896;51.032;3.712;2023-12-20T07:25:05;13.2;;;2;;
74457;SDS011;62896;51.032;3.712;2023-12-20T07:28:24;13.2;;;2;;
74457;SDS011;62896;51.032;3.712;2023-12-20T07:31:44;13.2;;;2;;
74457;SDS011;62896;51.032;3.712;2023-12-20T07:35:05;13.2;;;2;;
74457;SDS011;62896;51.032;3.712;2023-12-20T07:38:24;10.5;;;2;;
74457;SDS011;62896;51.032;3.712;2023-12-20T07:41:44;10.5;;;2;;
74457;SDS011;62896;51.032;3.712;2023-12-20T07:45:05;10.5;;;2;;
74457;SDS011;62896;51.032;3.712;2023-12-20T07:48:24;10.5;;;2;;
74457;SDS011;62896;51.032;3.712;2023-12-20T07:51:44;10.5;;;2;;
74457;SDS011;62896;51.032;3.712;2023-12-20T07:55:05;10.5;;;2;;
74457;SDS011;62896;51.032;3.712;2023-12-20T07:58:24;10.5;;;2;;
74457;SDS011;62896;51.032;3.712;2023-12-20T08:01:44;9.3;;;1.9;;
74457;SDS011;62896;51.032;3.712;2023-12-20T08:05:05;9.3;;;1.9;;
74457;SDS011;62896;51.032;3.712;2023-12-20T08:08:24;9.3;;;1.9;;
74457;SDS011;62896;51.032;3.712;2023-12-20T08:11:45;9.3;;;1.9;;
74457;SDS011;62896;51.032;3.712;2023-12-20T08:15:05;9.3;;;1.9;;
74457;SDS011;62896;51.032;3.712;2023-12-20T08:18:24;9.3;;;1.9;;
74457;SDS011;62896;51.032;3.712;2023-12-20T08:21:44;9.3;;;1.9;;
74457;SDS011;62896;51.032;3.712;2023-12-20T08:25:05;9.3;;;1.9;;
74457;SDS011;62896;51.032;3.712;2023-12-20T08:28:24;12;;;2.3;;
74457;SDS011;62896;51.032;3.712;2023-12-20T08:31:44;12;;;2.3;;
74457;SDS011;62896;51.032;3.712;2023-12-20T08:35:05;12;;;2.3;;
74457;SDS011;62896;51.032;3.712;2023-12-20T08:38:24;12;;;2.3;;
74457;SDS011;62896;51.032;3.712;2023-12-20T08:41:44;12;;;2.3;;
74457;SDS011;62896;51.032;3.712;2023-12-20T08:45:05;12;;;2.3;;
74457;SDS011;62896;51.032;3.712;2023-12-20T08:48:24;12;;;2.3;;
74457;SDS011;62896;51.032;3.712;2023-12-20T08:51:44;14.5;;;2.7;;
74457;SDS011;62896;51.032;3.712;2023-12-20T08:55:05;14.5;;;2.7;;
74457;SDS011;62896;51.032;3.712;2023-12-20T08:58:24;14.5;;;2.7;;
74457;SDS011;62896;51.032;3.712;2023-12-20T09:01:44;14.5;;;2.7;;
74457;SDS011;62896;51.032;3.712;2023-12-20T09:05:05;14.5;;;2.7;;
74457;SDS011;62896;51.032;3.712;2023-12-20T09:08:24;14.5;;;2.7;;
74457;SDS011;62896;51.032;3.712;2023-12-20T09:11:44;14.5;;;2.7;;
74457;SDS011;62896;51.032;3.712;2023-12-20T09:15:05;14.5;;;2.7;;
74457;SDS011;62896;51.032;3.712;2023-12-20T09:18:25;11.1;;;2.3;;
74457;SDS011;62896;51.032;3.712;2023-12-20T09:21:44;11.1;;;2.3;;
74457;SDS011;62896;51.032;3.712;2023-12-20T09:25:05;11.1;;;2.3;;
74457;SDS011;62896;51.032;3.712;2023-12-20T09:28:24;11.1;;;2.3;;
74457;SDS011;62896;51.032;3.712;2023-12-20T09:31:44;11.1;;;2.3;;
74457;SDS011;62896;51.032;3.712;2023-12-20T09:35:05;11.1;;;2.3;;
74457;SDS011;62896;51.032;3.712;2023-12-20T09:38:24;11.1;;;2.3;;
74457;SDS011;62896;51.032;3.712;2023-12-20T09:41:45;12.4;;;2.3;;
74457;SDS011;62896;51.032;3.712;2023-12-20T09:45:05;12.4;;;2.3;;
74457;SDS011;62896;51.032;3.712;2023-12-20T09:48:24;12.4;;;2.3;;
74457;SDS011;62896;51.032;3.712;2023-12-20T09:51:45;12.4;;;2.3;;
74457;SDS011;62896;51.032;3.712;2023-12-20T09:55:05;12.4;;;2.3;;
74457;SDS011;62896;51.032;3.712;2023-12-20T09:58:24;12.4;;;2.3;;
74457;SDS011;62896;51.032;3.712;2023-12-20T10:01:45;12.4;;;2.3;;
74457;SDS011;62896;51.032;3.712;2023-12-20T10:05:06;12.4;;;2.3;;
74457;SDS011;62896;51.032;3.712;2023-12-20T10:08:25;10;;;1.8;;
74457;SDS011;62896;51.032;3.712;2023-12-20T10:11:45;10;;;1.8;;
74457;SDS011;62896;51.032;3.712;2023-12-20T10:15:05;10;;;1.8;;
74457;SDS011;62896;51.032;3.712;2023-12-20T10:18:25;10;;;1.8;;
74457;SDS011;62896;51.032;3.712;2023-12-20T10:21:45;10;;;1.8;;
74457;SDS011;62896;51.032;3.712;2023-12-20T10:25:05;10;;;1.8;;
74457;SDS011;62896;51.032;3.712;2023-12-20T10:28:25;10;;;1.8;;
74457;SDS011;62896;51.032;3.712;2023-12-20T10:31:45;10.1;;;1.7;;
74457;SDS011;62896;51.032;3.712;2023-12-20T10:35:05;10.1;;;1.7;;
74457;SDS011;62896;51.032;3.712;2023-12-20T10:38:25;10.1;;;1.7;;
74457;SDS011;62896;51.032;3.712;2023-12-20T10:41:45;10.1;;;1.7;;
74457;SDS011;62896;51.032;3.712;2023-12-20T10:45:05;10.1;;;1.7;;
74457;SDS011;62896;51.032;3.712;2023-12-20T10:48:25;10.1;;;1.7;;
74457;SDS011;62896;51.032;3.712;2023-12-20T10:51:46;10.1;;;1.7;;
74457;SDS011;62896;51.032;3.712;2023-12-20T10:55:05;10.1;;;1.7;;
74457;SDS011;62896;51.032;3.712;2023-12-20T10:58:25;8.3;;;2;;
74457;SDS011;62896;51.032;3.712;2023-12-20T11:01:45;8.3;;;2;;
74457;SDS011;62896;51.032;3.712;2023-12-20T11:05:06;8.3;;;2;;
74457;SDS011;62896;51.032;3.712;2023-12-20T11:08:26;8.3;;;2;;
74457;SDS011;62896;51.032;3.712;2023-12-20T11:11:51;8.3;;;2;;
74457;SDS011;62896;51.032;3.712;2023-12-20T11:15:05;8.3;;;2;;
74457;SDS011;62896;51.032;3.712;2023-12-20T11:18:28;8.3;;;2;;
74457;SDS011;62896;51.032;3.712;2023-12-20T11:21:45;9.5;;;1.8;;
74457;SDS011;62896;51.032;3.712;2023-12-20T11:25:06;9.5;;;1.8;;
74457;SDS011;62896;51.032;3.712;2023-12-20T11:28:25;9.5;;;1.8;;
74457;SDS011;62896;51.032;3.712;2023-12-20T11:31:45;9.5;;;1.8;;
74457;SDS011;62896;51.032;3.712;2023-12-20T11:35:20;9.5;;;1.8;;
74457;SDS011;62896;51.032;3.712;2023-12-20T11:38:25;9.5;;;1.8;;
74457;SDS011;62896;51.032;3.712;2023-12-20T11:41:45;9.5;;;1.8;;
74457;SDS011;62896;51.032;3.712;2023-12-20T11:45:05;9.5;;;1.8;;
74457;SDS011;62896;51.032;3.712;2023-12-20T11:48:25;8.8;;;1.8;;
74457;SDS011;62896;51.032;3.712;2023-12-20T11:51:45;8.8;;;1.8;;
74457;SDS011;62896;51.032;3.712;2023-12-20T11:55:05;8.8;;;1.8;;
74457;SDS011;62896;51.032;3.712;2023-12-20T11:58:25;8.8;;;1.8;;
74457;SDS011;62896;51.032;3.712;2023-12-20T12:01:47;8.8;;;1.8;;
74457;SDS011;62896;51.032;3.712;2023-12-20T12:05:05;8.8;;;1.8;;
74457;SDS011;62896;51.032;3.712;2023-12-20T12:08:25;8.8;;;1.8;;
74457;SDS011;62896;51.032;3.712;2023-12-20T12:11:45;8.9;;;2;;
74457;SDS011;62896;51.032;3.712;2023-12-20T12:15:05;8.9;;;2;;
74457;SDS011;62896;51.032;3.712;2023-12-20T12:18:25;8.9;;;2;;
74457;SDS011;62896;51.032;3.712;2023-12-20T12:21:45;8.9;;;2;;
74457;SDS011;62896;51.032;3.712;2023-12-20T12:25:12;8.9;;;2;;
74457;SDS011;62896;51.032;3.712;2023-12-20T12:28:25;8.9;;;2;;
74457;SDS011;62896;51.032;3.712;2023-12-20T12:31:45;8.9;;;2;;
74457;SDS011;62896;51.032;3.712;2023-12-20T12:35:05;8.9;;;2;;
74457;SDS011;62896;51.032;3.712;2023-12-20T12:38:25;14.2;;;2.2;;
74457;SDS011;62896;51.032;3.712;2023-12-20T12:41:45;14.2;;;2.2;;
74457;SDS011;62896;51.032;3.712;2023-12-20T12:45:05;14.2;;;2.2;;
74457;SDS011;62896;51.032;3.712;2023-12-20T12:48:25;14.2;;;2.2;;
74457;SDS011;62896;51.032;3.712;2023-12-20T12:51:45;14.2;;;2.2;;
74457;SDS011;62896;51.032;3.712;2023-12-20T12:55:05;14.2;;;2.2;;
74457;SDS011;62896;51.032;3.712;2023-12-20T12:58:25;14.2;;;2.2;;
74457;SDS011;62896;51.032;3.712;2023-12-20T13:01:45;8.6;;;1.7;;
74457;SDS011;62896;51.032;3.712;2023-12-20T13:05:05;8.6;;;1.7;;
74457;SDS011;62896;51.032;3.712;2023-12-20T13:08:25;8.6;;;1.7;;
74457;SDS011;62896;51.032;3.712;2023-12-20T13:11:45;8.6;;;1.7;;
74457;SDS011;62896;51.032;3.712;2023-12-20T13:15:05;8.6;;;1.7;;
74457;SDS011;62896;51.032;3.712;2023-12-20T13:18:25;8.6;;;1.7;;
74457;SDS011;62896;51.032;3.712;2023-12-20T13:21:45;8.6;;;1.7;;
74457;SDS011;62896;51.032;3.712;2023-12-20T13:25:05;8.6;;;1.7;;
74457;SDS011;62896;51.032;3.712;2023-12-20T13:28:25;16;;;2.6;;
74457;SDS011;62896;51.032;3.712;2023-12-20T13:31:45;16;;;2.6;;
74457;SDS011;62896;51.032;3.712;2023-12-20T13:35:05;16;;;2.6;;
74457;SDS011;62896;51.032;3.712;2023-12-20T13:38:25;16;;;2.6;;
74457;SDS011;62896;51.032;3.712;2023-12-20T13:41:45;16;;;2.6;;
74457;SDS011;62896;51.032;3.712;2023-12-20T13:45:05;16;;;2.6;;
74457;SDS011;62896;51.032;3.712;2023-12-20T13:48:25;16;;;2.6;;
74457;SDS011;62896;51.032;3.712;2023-12-20T13:51:45;9.5;;;2.3;;
74457;SDS011;62896;51.032;3.712;2023-12-20T13:55:05;9.5;;;2.3;;
74457;SDS011;62896;51.032;3.712;2023-12-20T13:58:25;9.5;;;2.3;;
74457;SDS011;62896;51.032;3.712;2023-12-20T14:01:45;9.5;;;2.3;;
74457;SDS011;62896;51.032;3.712;2023-12-20T14:05:05;9.5;;;2.3;;
74457;SDS011;62896;51.032;3.712;2023-12-20T14:08:25;9.5;;;2.3;;
74457;SDS011;62896;51.032;3.712;2023-12-20T14:11:45;9.5;;;2.3;;
74457;SDS011;62896;51.032;3.712;2023-12-20T14:15:05;9.5;;;2.3;;
74457;SDS011;62896;51.032;3.712;2023-12-20T14:18:25;10.3;;;2.2;;
74457;SDS011;62896;51.032;3.712;2023-12-20T14:21:45;10.3;;;2.2;;
74457;SDS011;62896;51.032;3.712;2023-12-20T14:25:05;10.3;;;2.2;;
74457;SDS011;62896;51.032;3.712;2023-12-20T14:28:25;10.3;;;2.2;;
74457;SDS011;62896;51.032;3.712;2023-12-20T14:31:45;10.3;;;2.2;;
74457;SDS011;62896;51.032;3.712;2023-12-20T14:35:05;10.3;;;2.2;;
74457;SDS011;62896;51.032;3.712;2023-12-20T14:38:25;10.3;;;2.2;;
74457;SDS011;62896;51.032;3.712;2023-12-20T14:41:45;8.9;;;2.1;;
74457;SDS011;62896;51.032;3.712;2023-12-20T14:45:05;8.9;;;2.1;;
74457;SDS011;62896;51.032;3.712;2023-12-20T14:48:25;8.9;;;2.1;;
74457;SDS011;62896;51.032;3.712;2023-12-20T14:51:45;8.9;;;2.1;;
74457;SDS011;62896;51.032;3.712;2023-12-20T14:55:05;8.9;;;2.1;;
74457;SDS011;62896;51.032;3.712;2023-12-20T14:58:25;8.9;;;2.1;;
74457;SDS011;62896;51.032;3.712;2023-12-20T15:01:45;8.9;;;2.1;;
74457;SDS011;62896;51.032;3.712;2023-12-20T15:05:05;8.9;;;2.1;;
74457;SDS011;62896;51.032;3.712;2023-12-20T15:08:25;9;;;1.8;;
74457;SDS011;62896;51.032;3.712;2023-12-20T15:11:45;9;;;1.8;;
74457;SDS011;62896;51.032;3.712;2023-12-20T15:15:05;9;;;1.8;;
74457;SDS011;62896;51.032;3.712;2023-12-20T15:18:25;9;;;1.8;;
74457;SDS011;62896;51.032;3.712;2023-12-20T15:21:45;9;;;1.8;;
74457;SDS011;62896;51.032;3.712;2023-12-20T15:25:05;9;;;1.8;;
74457;SDS011;62896;51.032;3.712;2023-12-20T15:28:25;9;;;1.8;;
74457;SDS011;62896;51.032;3.712;2023-12-20T15:31:45;9.5;;;2;;
74457;SDS011;62896;51.032;3.712;2023-12-20T15:35:05;9.5;;;2;;
74457;SDS011;62896;51.032;3.712;2023-12-20T15:38:25;9.5;;;2;;
74457;SDS011;62896;51.032;3.712;2023-12-20T15:41:45;9.5;;;2;;
74457;SDS011;62896;51.032;3.712;2023-12-20T15:45:05;9.5;;;2;;
74457;SDS011;62896;51.032;3.712;2023-12-20T15:48:25;9.5;;;2;;
74457;SDS011;62896;51.032;3.712;2023-12-20T15:51:45;9.5;;;2;;
74457;SDS011;62896;51.032;3.712;2023-12-20T15:55:05;9.5;;;2;;
74457;SDS011;62896;51.032;3.712;2023-12-20T15:58:25;15.4;;;2.6;;
74457;SDS011;62896;51.032;3.712;2023-12-20T16:01:45;15.4;;;2.6;;
74457;SDS011;62896;51.032;3.712;2023-12-20T16:05:05;15.4;;;2.6;;
74457;SDS011;62896;51.032;3.712;2023-12-20T16:08:25;15.4;;;2.6;;
74457;SDS011;62896;51.032;3.712;2023-12-20T16:11:45;15.4;;;2.6;;
74457;SDS011;62896;51.032;3.712;2023-12-20T16:15:05;15.4;;;2.6;;
74457;SDS011;62896;51.032;3.712;2023-12-20T16:18:25;15.4;;;2.6;;
74457;SDS011;62896;51.032;3.712;2023-12-20T16:21:45;10.4;;;1.8;;
74457;SDS011;62896;51.032;3.712;2023-12-20T16:25:05;10.4;;;1.8;;
74457;SDS011;62896;51.032;3.712;2023-12-20T16:28:25;10.4;;;1.8;;
74457;SDS011;62896;51.032;3.712;2023-12-20T16:31:45;10.4;;;1.8;;
74457;SDS011;62896;51.032;3.712;2023-12-20T16:35:05;10.4;;;1.8;;
74457;SDS011;62896;51.032;3.712;2023-12-20T16:38:25;10.4;;;1.8;;
74457;SDS011;62896;51.032;3.712;2023-12-20T16:41:45;10.4;;;1.8;;
74457;SDS011;62896;51.032;3.712;2023-12-20T16:45:05;10.4;;;1.8;;
74457;SDS011;62896;51.032;3.712;2023-12-20T16:48:25;9.7;;;2.4;;
74457;SDS011;62896;51.032;3.712;2023-12-20T16:51:45;9.7;;;2.4;;
74457;SDS011;62896;51.032;3.712;2023-12-20T16:55:05;9.7;;;2.4;;
74457;SDS011;62896;51.032;3.712;2023-12-20T16:58:25;9.7;;;2.4;;
74457;SDS011;62896;51.032;3.712;2023-12-20T17:01:45;9.7;;;2.4;;
74457;SDS011;62896;51.032;3.712;2023-12-20T17:05:05;9.7;;;2.4;;
74457;SDS011;62896;51.032;3.712;2023-12-20T17:08:25;9.7;;;2.4;;
74457;SDS011;62896;51.032;3.712;2023-12-20T17:11:45;12.9;;;2.1;;
74457;SDS011;62896;51.032;3.712;2023-12-20T17:15:05;12.9;;;2.1;;
74457;SDS011;62896;51.032;3.712;2023-12-20T17:18:25;12.9;;;2.1;;
74457;SDS011;62896;51.032;3.712;2023-12-20T17:21:45;12.9;;;2.1;;
74457;SDS011;62896;51.032;3.712;2023-12-20T17:25:05;12.9;;;2.1;;
74457;SDS011;62896;51.032;3.712;2023-12-20T17:28:25;12.9;;;2.1;;
74457;SDS011;62896;51.032;3.712;2023-12-20T17:31:45;12.9;;;2.1;;
74457;SDS011;62896;51.032;3.712;2023-12-20T17:35:05;12.9;;;2.1;;
74457;SDS011;62896;51.032;3.712;2023-12-20T17:38:25;11.7;;;2.4;;
74457;SDS011;62896;51.032;3.712;2023-12-20T17:41:45;11.7;;;2.4;;
74457;SDS011;62896;51.032;3.712;2023-12-20T17:45:05;11.7;;;2.4;;
74457;SDS011;62896;51.032;3.712;2023-12-20T17:48:25;11.7;;;2.4;;
74457;SDS011;62896;51.032;3.712;2023-12-20T17:51:45;11.7;;;2.4;;
74457;SDS011;62896;51.032;3.712;2023-12-20T17:55:05;11.7;;;2.4;;
74457;SDS011;62896;51.032;3.712;2023-12-20T17:58:25;11.7;;;2.4;;
74457;SDS011;62896;51.032;3.712;2023-12-20T18:01:45;11.8;;;2.1;;
74457;SDS011;62896;51.032;3.712;2023-12-20T18:05:05;11.8;;;2.1;;
74457;SDS011;62896;51.032;3.712;2023-12-20T18:08:25;11.8;;;2.1;;
74457;SDS011;62896;51.032;3.712;2023-12-20T18:11:45;11.8;;;2.1;;
74457;SDS011;62896;51.032;3.712;2023-12-20T18:15:05;11.8;;;2.1;;
74457;SDS011;62896;51.032;3.712;2023-12-20T18:18:25;11.8;;;2.1;;
74457;SDS011;62896;51.032;3.712;2023-12-20T18:21:45;11.8;;;2.1;;
74457;SDS011;62896;51.032;3.712;2023-12-20T18:25:05;11.8;;;2.1;;
74457;SDS011;62896;51.032;3.712;2023-12-20T18:28:25;8.7;;;2.1;;
74457;SDS011;62896;51.032;3.712;2023-12-20T18:31:45;8.7;;;2.1;;
74457;SDS011;62896;51.032;3.712;2023-12-20T18:35:05;8.7;;;2.1;;
74457;SDS011;62896;51.032;3.712;2023-12-20T18:38:25;8.7;;;2.1;;
74457;SDS011;62896;51.032;3.712;2023-12-20T18:41:45;8.7;;;2.1;;
74457;SDS011;62896;51.032;3.712;2023-12-20T18:45:05;8.7;;;2.1;;
74457;SDS011;62896;51.032;3.712;2023-12-20T18:48:25;8.7;;;2.1;;
74457;SDS011;62896;51.032;3.712;2023-12-20T18:51:45;11;;;2.4;;
74457;SDS011;62896;51.032;3.712;2023-12-20T18:55:05;11;;;2.4;;
74457;SDS011;62896;51.032;3.712;2023-12-20T18:58:25;11;;;2.4;;
74457;SDS011;62896;51.032;3.712;2023-12-20T19:01:45;11;;;2.4;;
74457;SDS011;62896;51.032;3.712;2023-12-20T19:05:05;11;;;2.4;;
74457;SDS011;62896;51.032;3.712;2023-12-20T19:08:25;11;;;2.4;;
74457;SDS011;62896;51.032;3.712;2023-12-20T19:11:45;11;;;2.4;;
74457;SDS011;62896;51.032;3.712;2023-12-20T19:15:05;11;;;2.4;;
74457;SDS011;62896;51.032;3.712;2023-12-20T19:18:25;9.1;;;2.2;;
74457;SDS011;62896;51.032;3.712;2023-12-20T19:21:45;9.1;;;2.2;;
74457;SDS011;62896;51.032;3.712;2023-12-20T19:25:05;9.1;;;2.2;;
74457;SDS011;62896;51.032;3.712;2023-12-20T19:28:25;9.1;;;2.2;;
74457;SDS011;62896;51.032;3.712;2023-12-20T19:31:45;9.1;;;2.2;;
74457;SDS011;62896;51.032;3.712;2023-12-20T19:35:05;9.1;;;2.2;;
74457;SDS011;62896;51.032;3.712;2023-12-20T19:38:25;9.1;;;2.2;;
74457;SDS011;62896;51.032;3.712;2023-12-20T19:41:45;8.3;;;2.4;;
74457;SDS011;62896;51.032;3.712;2023-12-20T19:45:05;8.3;;;2.4;;
74457;SDS011;62896;51.032;3.712;2023-12-20T19:48:25;8.3;;;2.4;;
74457;SDS011;62896;51.032;3.712;2023-12-20T19:51:45;8.3;;;2.4;;
74457;SDS011;62896;51.032;3.712;2023-12-20T19:55:05;8.3;;;2.4;;
74457;SDS011;62896;51.032;3.712;2023-12-20T19:58:25;8.3;;;2.4;;
74457;SDS011;62896;51.032;3.712;2023-12-20T20:01:45;8.3;;;2.4;;
74457;SDS011;62896;51.032;3.712;2023-12-20T20:05:05;8.3;;;2.4;;
74457;SDS011;62896;51.032;3.712;2023-12-20T20:08:25;13.7;;;2.5;;
74457;SDS011;62896;51.032;3.712;2023-12-20T20:11:45;13.7;;;2.5;;
74457;SDS011;62896;51.032;3.712;2023-12-20T20:15:05;13.7;;;2.5;;
74457;SDS011;62896;51.032;3.712;2023-12-20T20:18:25;13.7;;;2.5;;
74457;SDS011;62896;51.032;3.712;2023-12-20T20:21:45;13.7;;;2.5;;
74457;SDS011;62896;51.032;3.712;2023-12-20T20:25:05;13.7;;;2.5;;
74457;SDS011;62896;51.032;3.712;2023-12-20T20:28:25;13.7;;;2.5;;
74457;SDS011;62896;51.032;3.712;2023-12-20T20:31:45;7.7;;;2.5;;
74457;SDS011;62896;51.032;3.712;2023-12-20T20:35:05;7.7;;;2.5;;
74457;SDS011;62896;51.032;3.712;2023-12-20T20:38:25;7.7;;;2.5;;
74457;SDS011;62896;51.032;3.712;2023-12-20T20:41:45;7.7;;;2.5;;